Time;durP1;ratioP1;P1;durP2;ratioP2;P2;SDS_P1;SDS_P2;PMS_P1;PMS_P2;Temp;Humidity;BMP_temperature;BMP_pressure;BME280_temperature;BME280_humidity;BME280_pressure;Samples;Min_cycle;Max_cycle;Signal;HPM_P1;HPM_P2
2023/09/27 00:00:00;;;;;;;28.42;25.45;;;12.90;99.90;;;;;;5049488;28;20817;-85
2023/09/27 00:02:27;;;;;;;27.63;24.52;;;;;;;;;;5057848;28;20041;-86
2023/09/27 00:04:53;;;;;;;29.17;25.98;;;12.90;99.90;;;;;;5053212;28;20044;-85
2023/09/27 00:07:19;;;;;;;32.50;27.13;;;;;;;;;;5024638;28;20139;-86
2023/09/27 00:09:45;;;;;;;29.20;26.15;;;;;;;;;;5067965;28;20056;-86
2023/09/27 00:12:12;;;;;;;32.28;28.02;;;;;;;;;;5025668;28;20049;-89
2023/09/27 00:14:38;;;;;;;33.20;28.05;;;;;;;;;;5053676;28;20156;-85
2023/09/27 00:17:05;;;;;;;32.58;29.00;;;;;;;;;;5055937;28;20112;-87
2023/09/27 00:19:31;;;;;;;32.60;28.33;;;;;;;;;;5053937;28;20040;-87
2023/09/27 00:21:57;;;;;;;33.65;28.77;;;;;;;;;;5055686;28;20528;-86
2023/09/27 00:24:23;;;;;;;36.25;28.50;;;;;;;;;;5054942;28;20083;-86
2023/09/27 00:26:50;;;;;;;34.78;29.60;;;;;;;;;;5050008;28;20057;-87
2023/09/27 00:29:16;;;;;;;35.83;29.38;;;;;;;;;;5054209;28;20055;-87
2023/09/27 00:31:46;;;;;;;30.80;27.70;;;12.90;99.90;;;;;;5058211;28;20061;-88
2023/09/27 00:34:19;;;;;;;32.35;28.80;;;;;;;;;;5024906;28;20057;-89
2023/09/27 00:36:49;;;;;;;33.90;30.40;;;12.90;99.90;;;;;;5076408;28;20397;-89
2023/09/27 00:39:15;;;;;;;32.47;28.98;;;12.80;99.90;;;;;;5018132;28;20049;-86
2023/09/27 00:41:42;;;;;;;33.40;29.70;;;;;;;;;;5060253;28;20218;-89
2023/09/27 00:44:08;;;;;;;37.38;29.88;;;;;;;;;;5065971;28;20065;-85
2023/09/27 00:46:34;;;;;;;33.03;29.45;;;;;;;;;;5057281;28;20053;-86
2023/09/27 00:49:00;;;;;;;37.80;31.63;;;;;;;;;;5016148;28;20056;-86
2023/09/27 00:51:27;;;;;;;37.35;32.35;;;12.70;99.90;;;;;;5073194;28;20044;-86
2023/09/27 00:53:55;;;;;;;37.58;32.22;;;12.70;99.90;;;;;;5070692;28;20139;-86
2023/09/27 00:56:21;;;;;;;38.60;34.45;;;;;;;;;;5020603;28;20570;-85
2023/09/27 00:58:48;;;;;;;40.80;32.95;;;12.70;99.90;;;;;;5052142;28;20083;-86
2023/09/27 01:01:15;;;;;;;40.67;34.13;;;;;;;;;;5033083;28;20052;-86
2023/09/27 01:03:42;;;;;;;40.35;35.13;;;;;;;;;;5063875;28;20083;-86
2023/09/27 01:06:08;;;;;;;40.03;33.95;;;;;;;;;;5066516;28;20049;-87
2023/09/27 01:08:34;;;;;;;37.75;33.65;;;;;;;;;;5061452;28;20052;-86
2023/09/27 01:11:04;;;;;;;40.70;33.97;;;12.90;99.90;;;;;;5063752;28;20052;-86
2023/09/27 01:13:30;;;;;;;41.80;34.72;;;;;;;;;;5046648;28;20046;-85
2023/09/27 01:15:59;;;;;;;39.35;35.10;;;13.00;99.90;;;;;;5045362;28;20052;-85
2023/09/27 01:18:27;;;;;;;40.38;31.50;;;13.40;99.90;;;;;;5049784;28;20522;-85
2023/09/27 01:20:54;;;;;;;38.95;33.65;;;;;;;;;;5055745;28;20044;-86
2023/09/27 01:23:20;;;;;;;40.40;34.00;;;;;;;;;;5064722;28;20049;-85
2023/09/27 01:25:46;;;;;;;37.03;32.85;;;;;;;;;;5054518;28;20101;-84
2023/09/27 01:28:12;;;;;;;39.33;34.15;;;;;;;;;;5050770;28;20077;-86
2023/09/27 01:30:38;;;;;;;39.08;34.65;;;;;;;;;;5074539;28;20044;-86
2023/09/27 01:33:07;;;;;;;41.25;35.13;;;13.00;99.90;;;;;;5056313;28;21022;-86
2023/09/27 01:35:34;;;;;;;39.20;34.90;;;13.10;99.90;;;;;;5054577;28;20659;-86
2023/09/27 01:38:04;;;;;;;42.25;36.30;;;;;;;;;;5030112;28;20439;-85
2023/09/27 01:40:30;;;;;;;46.45;35.08;;;;;;;;;;5044012;28;20047;-86
2023/09/27 01:42:57;;;;;;;41.00;33.97;;;12.90;99.90;;;;;;5051721;28;20041;-87
2023/09/27 01:45:23;;;;;;;43.35;36.10;;;;;;;;;;5024367;28;20048;-85
2023/09/27 01:47:49;;;;;;;41.13;35.05;;;;;;;;;;5064788;28;20051;-86
2023/09/27 01:50:19;;;;;;;40.15;35.95;;;;;;;;;;5064299;28;20048;-87
2023/09/27 01:52:46;;;;;;;44.08;38.03;;;;;;;;;;5061889;28;20055;-85
2023/09/27 01:55:12;;;;;;;40.38;36.10;;;;;;;;;;5043997;28;20182;-85
2023/09/27 01:57:41;;;;;;;43.30;34.78;;;;;;;;;;5049659;28;20855;-86
2023/09/27 02:00:11;;;;;;;41.80;35.25;;;;;;;;;;5045321;28;20089;-86
2023/09/27 02:02:58;;;;;;;43.85;36.88;;;12.80;99.90;;;;;;5050019;28;20505;-85
2023/09/27 02:05:25;;;;;;;47.67;38.20;;;12.70;99.90;;;;;;5034885;28;20490;-86
2023/09/27 02:07:51;;;;;;;42.65;35.83;;;;;;;;;;5024450;28;20040;-85
2023/09/27 02:10:17;;;;;;;43.45;37.05;;;;;;;;;;5059875;28;20783;-84
2023/09/27 02:12:44;;;;;;;40.58;35.83;;;12.60;99.90;;;;;;5051821;28;20531;-85
2023/09/27 02:15:14;;;;;;;43.47;37.70;;;12.60;99.90;;;;;;5036667;28;20099;-87
2023/09/27 02:17:41;;;;;;;47.25;38.55;;;12.60;99.90;;;;;;5023318;28;20055;-85
2023/09/27 02:20:12;;;;;;;48.03;39.08;;;12.50;99.90;;;;;;5031372;28;20418;-86
2023/09/27 02:22:40;;;;;;;45.35;38.42;;;;;;;;;;5056670;28;20091;-85
2023/09/27 02:25:09;;;;;;;44.60;39.75;;;12.60;99.90;;;;;;5076149;28;20417;-85
2023/09/27 02:27:35;;;;;;;43.72;38.38;;;;;;;;;;5015031;28;20108;-84
2023/09/27 02:30:03;;;;;;;49.10;40.30;;;12.50;99.90;;;;;;5074964;28;20043;-84
2023/09/27 02:32:29;;;;;;;53.03;40.65;;;;;;;;;;5072167;28;20060;-84
2023/09/27 02:34:55;;;;;;;48.00;42.47;;;;;;;;;;5067019;28;20044;-85
2023/09/27 02:37:21;;;;;;;45.00;40.15;;;;;;;;;;5057931;28;20072;-84
2023/09/27 02:39:48;;;;;;;50.00;40.83;;;;;;;;;;5075069;28;20409;-84
2023/09/27 02:42:14;;;;;;;52.67;42.85;;;;;;;;;;5056594;28;20051;-84
2023/09/27 02:44:40;;;;;;;48.70;39.60;;;;;;;;;;5044247;28;20124;-85
2023/09/27 02:47:07;;;;;;;46.63;41.33;;;12.40;99.90;;;;;;5040015;28;20048;-85
2023/09/27 02:49:37;;;;;;;54.60;43.03;;;12.40;99.90;;;;;;5038957;28;20534;-85
2023/09/27 02:52:03;;;;;;;51.63;43.05;;;;;;;;;;5035942;28;20527;-84
2023/09/27 02:54:30;;;;;;;53.22;42.88;;;;;;;;;;5046195;28;20060;-85
2023/09/27 02:56:56;;;;;;;48.53;40.67;;;;;;;;;;5057335;28;20494;-84
2023/09/27 02:59:22;;;;;;;50.25;40.92;;;;;;;;;;5053997;28;20068;-84
2023/09/27 03:01:48;;;;;;;49.50;42.92;;;;;;;;;;5054673;28;20043;-84
2023/09/27 03:04:17;;;;;;;47.38;42.15;;;;;;;;;;5031286;28;20825;-84
2023/09/27 03:06:43;;;;;;;53.17;41.75;;;;;;;;;;5053797;28;20455;-85
2023/09/27 03:09:11;;;;;;;49.25;41.78;;;;;;;;;;5057281;28;20048;-85
2023/09/27 03:11:38;;;;;;;51.45;43.35;;;;;;;;;;5057486;28;20070;-85
2023/09/27 03:14:04;;;;;;;49.78;43.03;;;;;;;;;;5056469;28;20044;-85
2023/09/27 03:16:31;;;;;;;53.08;43.58;;;;;;;;;;5045231;28;20066;-85
2023/09/27 03:18:58;;;;;;;56.95;45.33;;;12.10;99.90;;;;;;5058298;28;20050;-85
2023/09/27 03:21:26;;;;;;;52.90;43.55;;;;;;;;;;5068781;28;20432;-84
2023/09/27 03:23:53;;;;;;;53.72;44.95;;;;;;;;;;5058182;28;20058;-84
2023/09/27 03:26:22;;;;;;;57.25;46.10;;;12.20;99.90;;;;;;5058439;28;20046;-83
2023/09/27 03:28:49;;;;;;;53.90;44.33;;;;;;;;;;5035706;28;20051;-84
2023/09/27 03:31:15;;;;;;;50.45;42.63;;;;;;;;;;5055287;28;20149;-85
2023/09/27 03:33:41;;;;;;;55.50;43.88;;;;;;;;;;5072821;28;20117;-84
2023/09/27 03:36:07;;;;;;;58.58;45.95;;;;;;;;;;5056117;28;20261;-84
2023/09/27 03:38:34;;;;;;;54.45;45.92;;;;;;;;;;5056533;28;20106;-85
2023/09/27 03:41:00;;;;;;;58.97;45.38;;;;;;;;;;5014969;28;20043;-84
2023/09/27 03:43:26;;;;;;;57.83;45.70;;;;;;;;;;5072739;28;20041;-84
2023/09/27 03:45:52;;;;;;;55.25;45.03;;;;;;;;;;5055293;28;20048;-84
2023/09/27 03:48:19;;;;;;;56.63;45.63;;;;;;;;;;5051939;28;20066;-83
2023/09/27 03:50:45;;;;;;;56.33;45.75;;;;;;;;;;5049492;28;20045;-84
2023/09/27 03:53:12;;;;;;;52.03;44.45;;;;;;;;;;5045839;28;20045;-85
2023/09/27 03:55:38;;;;;;;59.72;47.65;;;;;;;;;;5067538;28;20102;-84
2023/09/27 03:58:04;;;;;;;57.13;44.70;;;;;;;;;;5067792;28;20048;-84
2023/09/27 04:00:30;;;;;;;53.17;43.85;;;;;;;;;;5055192;28;20781;-85
2023/09/27 04:02:56;;;;;;;58.20;48.38;;;;;;;;;;5056043;28;20049;-84
2023/09/27 04:05:25;;;;;;;66.70;50.65;;;;;;;;;;5019894;28;20080;-84
2023/09/27 04:07:51;;;;;;;59.88;48.00;;;;;;;;;;5063354;28;20095;-85
2023/09/27 04:10:19;;;;;;;70.75;53.47;;;;;;;;;;5032200;28;20045;-85
2023/09/27 04:12:45;;;;;;;61.88;48.08;;;;;;;;;;5052751;28;20153;-84
2023/09/27 04:15:11;;;;;;;65.05;50.60;;;;;;;;;;5030523;28;20135;-83
2023/09/27 04:17:40;;;;;;;67.28;53.38;;;11.90;99.90;;;;;;5043448;28;20502;-84
2023/09/27 04:20:18;;;;;;;66.80;52.10;;;;;;;;;;5039940;28;20095;-85
2023/09/27 04:22:47;;;;;;;65.80;50.88;;;11.90;99.90;;;;;;5057380;28;20040;-85
2023/09/27 04:25:14;;;;;;;67.35;53.13;;;;;;;;;;5009632;28;20048;-85
2023/09/27 04:27:46;;;;;;;65.10;51.70;;;11.90;99.90;;;;;;5052195;28;20123;-85
2023/09/27 04:30:14;;;;;;;56.27;48.47;;;11.90;99.90;;;;;;5023198;28;20052;-85
2023/09/27 04:32:44;;;;;;;61.25;49.00;;;11.80;99.90;;;;;;5063842;28;20385;-84
2023/09/27 04:35:11;;;;;;;62.30;49.33;;;;;;;;;;5018181;28;20585;-85
2023/09/27 04:37:38;;;;;;;63.53;50.40;;;11.80;99.90;;;;;;5058367;28;20055;-85
2023/09/27 04:40:14;;;;;;;61.28;49.85;;;;;;;;;;5036373;28;20084;-87
2023/09/27 04:42:44;;;;;;;64.82;48.88;;;12.00;99.90;;;;;;5062083;28;20047;-84
2023/09/27 04:45:12;;;;;;;65.03;50.97;;;11.70;99.90;;;;;;5039817;28;20041;-84
2023/09/27 04:47:40;;;;;;;66.38;51.30;;;;;;;;;;5049319;28;20040;-84
2023/09/27 04:50:10;;;;;;;65.63;51.22;;;11.70;99.90;;;;;;5055727;28;20040;-85
2023/09/27 04:52:39;;;;;;;69.53;51.58;;;11.70;99.90;;;;;;5014190;28;20044;-85
2023/09/27 04:55:07;;;;;;;66.93;51.22;;;11.60;99.90;;;;;;5020678;28;20084;-84
2023/09/27 04:57:33;;;;;;;67.13;51.60;;;;;;;;;;5024205;28;20052;-84
2023/09/27 04:59:59;;;;;;;63.90;49.05;;;;;;;;;;5054652;28;20549;-84
2023/09/27 05:02:27;;;;;;;66.13;51.80;;;;;;;;;;5058886;28;20044;-84
2023/09/27 05:04:53;;;;;;;62.95;51.58;;;;;;;;;;5068032;28;20097;-84
2023/09/27 05:07:19;;;;;;;69.60;53.05;;;11.50;99.90;;;;;;5035818;28;20143;-84
2023/09/27 05:09:48;;;;;;;66.35;51.58;;;11.50;99.90;;;;;;5043783;28;20045;-85
2023/09/27 05:12:14;;;;;;;75.70;55.88;;;11.40;99.90;;;;;;5065368;28;20044;-85
2023/09/27 05:14:41;;;;;;;71.80;54.65;;;;;;;;;;5063449;28;20861;-84
2023/09/27 05:17:07;;;;;;;72.75;53.38;;;;;;;;;;5053940;28;20044;-84
2023/09/27 05:19:33;;;;;;;71.47;52.10;;;;;;;;;;5060298;28;20125;-84
2023/09/27 05:21:59;;;;;;;69.35;51.85;;;;;;;;;;5062407;28;20050;-84
2023/09/27 05:24:25;;;;;;;64.68;49.50;;;;;;;;;;5058501;28;20083;-83
2023/09/27 05:26:52;;;;;;;71.85;52.40;;;;;;;;;;5051428;28;20048;-84
2023/09/27 05:29:18;;;;;;;73.53;55.05;;;;;;;;;;5053701;28;20045;-84
2023/09/27 05:31:44;;;;;;;70.35;54.33;;;;;;;;;;5049926;28;20056;-85
2023/09/27 05:34:10;;;;;;;77.50;58.47;;;;;;;;;;5074848;28;20057;-84
2023/09/27 05:36:37;;;;;;;71.50;54.28;;;;;;;;;;5058196;28;20045;-85
2023/09/27 05:39:05;;;;;;;80.57;58.22;;;;;;;;;;5068432;28;20834;-85
2023/09/27 05:41:31;;;;;;;76.55;59.45;;;;;;;;;;5039691;28;20038;-85
2023/09/27 05:43:57;;;;;;;73.38;57.38;;;;;;;;;;5067807;28;20389;-85
2023/09/27 05:46:24;;;;;;;81.88;61.80;;;;;;;;;;5058427;28;20045;-84
2023/09/27 05:48:51;;;;;;;80.95;59.47;;;;;;;;;;5040292;28;20049;-84
2023/09/27 05:51:17;;;;;;;75.75;58.60;;;;;;;;;;5068976;28;20045;-84
2023/09/27 05:53:43;;;;;;;77.65;59.15;;;;;;;;;;5053269;28;20060;-84
2023/09/27 05:56:09;;;;;;;66.35;56.72;;;;;;;;;;5058193;28;20425;-84
2023/09/27 05:58:36;;;;;;;70.78;54.90;;;;;;;;;;5054914;28;20200;-85
2023/09/27 06:01:02;;;;;;;65.85;54.13;;;;;;;;;;5049815;28;20063;-84
2023/09/27 06:03:32;;;;;;;59.00;50.50;;;13.30;99.90;;;;;;5073424;28;20040;-84
2023/09/27 06:05:58;;;;;;;59.10;49.85;;;;;;;;;;5040724;28;20107;-84
2023/09/27 06:08:25;;;;;;;63.13;50.75;;;13.40;99.90;;;;;;5064602;28;20051;-84
2023/09/27 06:10:51;;;;;;;57.55;48.88;;;;;;;;;;5047888;28;20037;-84
2023/09/27 06:13:17;;;;;;;55.60;47.45;;;;;;;;;;5054726;28;20553;-84
2023/09/27 06:15:43;;;;;;;54.45;46.50;;;;;;;;;;5007586;28;20045;-84
2023/09/27 06:18:11;;;;;;;51.38;45.72;;;;;;;;;;5050706;28;20490;-85
2023/09/27 06:20:41;;;;;;;52.35;44.63;;;13.60;99.90;;;;;;5068919;28;20051;-86
2023/09/27 06:23:08;;;;;;;50.15;42.67;;;;;;;;;;5052994;28;20106;-84
2023/09/27 06:25:36;;;;;;;52.10;43.17;;;;;;;;;;5064056;28;20048;-85
2023/09/27 06:28:02;;;;;;;51.33;45.22;;;;;;;;;;5031724;28;20048;-84
2023/09/27 06:30:28;;;;;;;50.70;44.58;;;;;;;;;;5058974;28;20176;-84
2023/09/27 06:32:54;;;;;;;50.03;43.13;;;;;;;;;;5063039;28;20049;-83
2023/09/27 06:35:21;;;;;;;47.65;42.47;;;;;;;;;;5043178;28;20585;-83
2023/09/27 06:37:49;;;;;;;45.80;40.90;;;;;;;;;;5062363;28;20045;-84
2023/09/27 06:40:17;;;;;;;47.55;41.08;;;;;;;;;;5044085;28;20561;-84
2023/09/27 06:42:46;;;;;;;47.92;41.58;;;13.90;99.90;;;;;;5034188;28;20114;-82
2023/09/27 06:45:15;;;;;;;50.08;44.22;;;13.90;99.90;;;;;;5025720;28;20068;-84
2023/09/27 06:47:44;;;;;;;45.08;39.80;;;13.90;99.90;;;;;;5052207;28;20076;-84
2023/09/27 06:50:11;;;;;;;46.08;39.83;;;13.90;99.90;;;;;;5037927;28;20045;-83
2023/09/27 06:52:39;;;;;;;47.55;39.45;;;13.90;99.90;;;;;;5038246;28;20044;-83
2023/09/27 06:55:16;;;;;;;46.38;41.38;;;13.90;99.90;;;;;;5037195;28;20045;-83
2023/09/27 06:57:42;;;;;;;47.33;40.33;;;;;;;;;;5069744;28;20041;-84
2023/09/27 07:00:13;;;;;;;41.97;37.42;;;;;;;;;;5070144;28;20063;-83
2023/09/27 07:02:42;;;;;;;47.13;38.13;;;14.20;99.90;;;;;;5061936;28;20044;-84
2023/09/27 07:05:09;;;;;;;43.08;37.08;;;14.20;99.90;;;;;;5031438;28;20506;-84
2023/09/27 07:07:35;;;;;;;42.70;35.85;;;14.50;99.90;;;;;;5015948;28;20071;-84
2023/09/27 07:10:00;;;;;;;39.88;35.33;;;14.80;99.90;;;;;;5036705;28;20045;-84
2023/09/27 07:12:26;;;;;;;40.05;35.65;;;14.60;99.90;;;;;;5021484;28;20083;-83
2023/09/27 07:14:52;;;;;;;38.85;34.63;;;;;;;;;;5037395;28;20045;-84
2023/09/27 07:17:18;;;;;;;38.03;33.90;;;;;;;;;;5053326;28;20049;-85
2023/09/27 07:19:45;;;;;;;37.13;33.20;;;;;;;;;;5070432;28;20040;-85
2023/09/27 07:22:15;;;;;;;36.58;32.85;;;;;;;;;;5046608;28;20040;-86
2023/09/27 07:24:41;;;;;;;40.58;36.28;;;;;;;;;;5071671;28;20045;-85
2023/09/27 07:27:08;;;;;;;40.13;35.78;;;;;;;;;;5039997;28;20041;-84
2023/09/27 07:29:34;;;;;;;39.50;35.22;;;;;;;;;;5040878;28;20048;-87
2023/09/27 07:32:00;;;;;;;39.55;35.53;;;;;;;;;;5073154;28;20054;-85
2023/09/27 07:34:27;;;;;;;41.08;36.88;;;;;;;;;;5061059;28;20049;-85
2023/09/27 07:36:54;;;;;;;40.17;35.97;;;;;;;;;;5068850;28;20071;-85
2023/09/27 07:39:20;;;;;;;38.95;34.83;;;;;;;;;;5069119;28;20037;-85
2023/09/27 07:41:46;;;;;;;42.33;36.13;;;;;;;;;;5072654;28;20048;-85
2023/09/27 07:44:18;;;;;;;39.28;34.22;;;15.90;99.90;;;;;;5068500;28;20068;-85
2023/09/27 07:46:44;;;;;;;;;;;16.00;99.90;;;;;;5034482;28;20057;-84
2023/09/27 07:49:10;;;;;;;36.83;33.00;;;;;;;;;;5061964;28;20425;-85
2023/09/27 07:51:37;;;;;;;38.65;34.67;;;;;;;;;;5045311;28;20038;-86
2023/09/27 07:54:04;;;;;;;39.65;33.60;;;;;;;;;;5037926;28;20121;-85
2023/09/27 07:56:36;;;;;;;36.67;32.80;;;;;;;;;;5055363;28;20041;-85
2023/09/27 07:59:03;;;;;;;39.25;35.15;;;;;;;;;;5063372;28;20040;-85
2023/09/27 08:01:29;;;;;;;38.92;34.72;;;;;;;;;;5066316;28;20056;-85
2023/09/27 08:04:05;;;;;;;37.33;33.47;;;;;;;;;;5061199;28;20044;-85
2023/09/27 08:06:31;;;;;;;41.00;36.75;;;;;;;;;;5065633;28;20049;-85
2023/09/27 08:08:58;;;;;;;39.42;34.70;;;;;;;;;;5061766;28;20072;-85
2023/09/27 08:11:24;;;;;;;42.13;37.92;;;;;;;;;;5052036;28;20043;-84
2023/09/27 08:13:52;;;;;;;38.78;34.67;;;15.90;99.90;;;;;;5064287;28;20089;-85
2023/09/27 08:16:18;;;;;;;36.00;32.30;;;;;;;;;;5072771;28;20040;-86
2023/09/27 08:18:44;;;;;;;38.13;34.00;;;;;;;;;;5070199;28;20071;-85
2023/09/27 08:21:10;;;;;;;37.58;33.65;;;;;;;;;;5066074;28;20037;-84
2023/09/27 08:23:36;;;;;;;38.55;34.65;;;;;;;;;;5070848;28;20184;-84
2023/09/27 08:26:02;;;;;;;38.80;34.03;;;;;;;;;;5025672;28;20044;-83
2023/09/27 08:28:33;;;;;;;37.75;33.85;;;;;;;;;;5031655;28;20049;-83
2023/09/27 08:31:00;;;;;;;36.45;32.80;;;;;;;;;;5017719;28;20064;-83
2023/09/27 08:33:27;;;;;;;36.45;32.85;;;;;;;;;;5009256;28;20057;-84
2023/09/27 08:35:53;;;;;;;36.78;33.00;;;;;;;;;;5026189;28;20040;-83
2023/09/27 08:38:20;;;;;;;35.40;31.83;;;;;;;;;;5014311;28;20041;-83
2023/09/27 08:40:47;;;;;;;34.10;30.63;;;;;;;;;;5040008;28;20044;-83
2023/09/27 08:43:16;;;;;;;31.55;28.25;;;18.40;99.90;;;;;;5009291;28;20037;-84
2023/09/27 08:45:44;;;;;;;30.48;27.20;;;;;;;;;;5016260;28;20530;-84
2023/09/27 08:48:12;;;;;;;30.00;26.80;;;;;;;;;;5027441;28;20133;-84
2023/09/27 08:50:38;;;;;;;28.90;26.00;;;;;;;;;;5026257;28;20174;-85
2023/09/27 08:53:04;;;;;;;26.52;23.92;;;;;;;;;;5022226;28;20040;-83
2023/09/27 08:55:30;;;;;;;28.15;25.25;;;;;;;;;;5014066;28;20037;-85
2023/09/27 08:57:57;;;;;;;26.58;23.98;;;20.90;99.90;;;;;;5024412;28;20033;-85
2023/09/27 09:00:26;;;;;;;26.52;23.63;;;21.20;99.90;;;;;;5014322;28;20577;-86
2023/09/27 09:03:00;;;;;;;25.88;23.33;;;21.30;99.90;;;;;;4999179;28;20130;-85
2023/09/27 09:05:30;;;;;;;25.65;23.08;;;21.50;99.90;;;;;;5007179;28;20137;-86
2023/09/27 09:07:57;;;;;;;25.67;23.08;;;22.50;99.90;;;;;;4987724;28;20112;-86
2023/09/27 09:10:22;;;;;;;25.23;22.85;;;21.40;99.90;;;;;;5028075;28;20135;-85
2023/09/27 09:12:49;;;;;;;23.98;21.67;;;21.80;99.90;;;;;;5031843;28;20517;-88
2023/09/27 09:15:35;;;;;;;23.05;20.65;;;21.80;99.90;;;;;;5046233;28;20712;-86
2023/09/27 09:18:06;;;;;;;21.83;19.73;;;;;;;;;;5005011;28;20560;-85
2023/09/27 09:20:48;;;;;;;23.45;21.15;;;21.60;99.90;;;;;;5018869;28;20692;-86
2023/09/27 09:23:31;;;;;;;23.52;21.30;;;21.70;99.90;;;;;;4986249;28;20091;-86
2023/09/27 09:26:00;;;;;;;22.77;20.48;;;;;;;;;;5024643;28;20116;-86
2023/09/27 09:28:27;;;;;;;23.70;21.20;;;;;;;;;;5009310;28;20041;-86
2023/09/27 09:30:56;;;;;;;23.92;20.45;;;;;;;;;;5027373;28;20643;-85
2023/09/27 09:33:28;;;;;;;24.88;22.27;;;;;;;;;;5028017;28;20128;-85
2023/09/27 09:35:55;;;;;;;22.50;20.00;;;22.00;99.90;;;;;;5005815;28;20039;-88
2023/09/27 09:38:29;;;;;;;22.73;20.25;;;21.90;99.90;;;;;;5040014;28;20049;-85
2023/09/27 09:40:57;;;;;;;23.92;21.58;;;21.80;99.90;;;;;;5007492;28;20037;-85
2023/09/27 09:43:39;;;;;;;23.02;20.60;;;21.70;99.90;;;;;;5017744;28;20125;-85
2023/09/27 09:46:10;;;;;;;23.00;20.55;;;21.60;99.90;;;;;;4998101;28;20101;-85
2023/09/27 09:48:38;;;;;;;23.15;20.88;;;22.20;99.90;;;;;;4996483;28;20043;-86
2023/09/27 09:51:08;;;;;;;24.55;22.02;;;21.60;99.90;;;;;;5001149;28;20116;-85
2023/09/27 09:53:38;;;;;;;21.08;18.98;;;21.60;99.90;;;;;;5017037;28;20079;-85
2023/09/27 09:56:05;;;;;;;25.80;22.10;;;;;;;;;;5002113;28;20032;-86
2023/09/27 09:58:39;;;;;;;25.05;20.83;;;21.70;99.90;;;;;;5049849;28;20215;-84
2023/09/27 10:01:07;;;;;;;24.42;21.15;;;21.70;99.90;;;;;;4994687;28;20043;-85
2023/09/27 10:03:35;;;;;;;23.80;21.30;;;;;;;;;;4999994;28;20032;-84
2023/09/27 10:06:02;;;;;;;22.52;19.10;;;21.70;99.90;;;;;;5017554;28;20045;-85
2023/09/27 10:08:37;;;;;;;25.02;20.73;;;21.70;99.90;;;;;;5016864;28;20588;-84
2023/09/27 10:11:04;;;;;;;23.10;20.55;;;;;;;;;;4991264;28;20048;-84
2023/09/27 10:13:35;;;;;;;23.75;21.20;;;22.00;99.90;;;;;;5035113;28;20036;-83
2023/09/27 10:16:05;;;;;;;21.90;19.60;;;22.10;99.90;;;;;;5032428;28;20510;-84
2023/09/27 10:18:36;;;;;;;21.17;18.77;;;22.30;99.90;;;;;;5017916;28;20291;-83
2023/09/27 10:21:05;;;;;;;21.77;19.17;;;;;;;;;;5004278;28;20068;-83
2023/09/27 10:23:38;;;;;;;21.15;18.95;;;22.40;99.90;;;;;;5038172;28;20493;-84
2023/09/27 10:26:28;;;;;;;20.60;18.30;;;22.30;99.90;;;;;;5037914;28;20036;-83
2023/09/27 10:29:06;;;;;;;21.50;18.90;;;22.30;99.90;;;;;;5026817;28;20041;-84
2023/09/27 10:31:38;;;;;;;21.50;19.35;;;22.20;99.90;;;;;;5035409;28;20053;-85
2023/09/27 10:34:30;;;;;;;22.67;18.15;;;22.20;99.90;;;;;;4999545;28;20490;-85
2023/09/27 10:37:02;;;;;;;20.45;18.20;;;22.10;99.90;;;;;;4998392;28;20041;-85
2023/09/27 10:39:29;;;;;;;21.63;19.33;;;;;;;;;;5020094;28;20040;-85
2023/09/27 10:41:56;;;;;;;21.70;19.05;;;;;;;;;;5017783;28;20658;-83
2023/09/27 10:44:40;;;;;;;21.95;19.83;;;20.70;99.90;;;;;;4990641;28;20095;-84
2023/09/27 10:47:07;;;;;;;21.02;18.73;;;;;;;;;;5011760;28;20041;-85
2023/09/27 10:49:43;;;;;;;20.67;17.65;;;22.20;99.90;;;;;;4990022;28;20953;-84
2023/09/27 10:52:16;;;;;;;20.60;18.40;;;22.20;99.90;;;;;;5038067;28;20432;-86
2023/09/27 10:54:43;;;;;;;22.02;19.70;;;;;;;;;;5014546;28;20118;-86
2023/09/27 10:57:10;;;;;;;23.80;19.30;;;;;;;;;;5017843;28;20480;-86
2023/09/27 10:59:36;;;;;;;21.80;19.52;;;;;;;;;;5020878;28;20480;-90
2023/09/27 11:02:03;;;;;;;21.15;18.83;;;;;;;;;;5015906;28;20036;-86
2023/09/27 11:04:32;;;;;;;21.15;18.45;;;20.50;99.90;;;;;;5002169;28;20044;-84
2023/09/27 11:06:58;;;;;;;20.13;16.90;;;;;;;;;;5026710;28;20041;-86
2023/09/27 11:09:26;;;;;;;19.50;17.50;;;;;;;;;;4979026;28;20044;-86
2023/09/27 11:11:57;;;;;;;19.90;17.50;;;22.50;99.90;;;;;;5021984;28;20038;-85
2023/09/27 11:14:36;;;;;;;21.85;16.92;;;22.60;99.90;;;;;;4984139;28;20169;-87
2023/09/27 11:17:22;;;;;;;22.60;16.60;;;22.70;99.90;;;;;;5013410;28;20729;-85
2023/09/27 11:19:52;;;;;;;19.88;17.85;;;22.70;99.90;;;;;;4993627;28;20128;-86
2023/09/27 11:22:28;;;;;;;21.17;18.60;;;22.50;99.90;;;;;;5027565;28;20041;-84
2023/09/27 11:24:55;;;;;;;17.65;15.52;;;;;;;;;;5012007;28;21308;-84
2023/09/27 11:27:22;;;;;;;18.73;15.13;;;22.80;99.90;;;;;;4989334;28;20040;-83
2023/09/27 11:29:53;;;;;;;17.55;15.82;;;22.70;99.90;;;;;;4982533;28;20076;-88
2023/09/27 11:32:19;;;;;;;;;;;22.70;99.90;;;;;;5040987;28;21009;-83
2023/09/27 11:34:59;;;;;;;18.02;15.30;;;22.70;99.90;;;;;;5035139;28;19974;-84
2023/09/27 11:37:28;;;;;;;19.40;15.23;;;22.80;99.90;;;;;;5003655;28;20177;-87
2023/09/27 11:39:55;;;;;;;14.35;12.95;;;;;;;;;;5018389;28;20037;-86
2023/09/27 11:42:25;;;;;;;16.80;14.57;;;22.90;99.90;;;;;;5039458;28;20037;-88
2023/09/27 11:45:08;;;;;;;19.27;14.80;;;20.20;99.90;;;;;;4987097;28;20043;-82
2023/09/27 11:47:46;;;;;;;17.65;13.50;;;22.90;99.90;;;;;;5029133;28;20036;-85
2023/09/27 11:50:13;;;;;;;21.63;16.48;;;23.00;99.90;;;;;;5015325;28;20163;-84
2023/09/27 11:52:40;;;;;;;16.33;14.63;;;;;;;;;;4994207;28;20193;-84
2023/09/27 11:55:06;;;;;;;16.33;13.93;;;;;;;;;;5026140;28;20040;-84
2023/09/27 11:57:32;;;;;;;22.60;16.73;;;;;;;;;;5030059;28;20533;-83
2023/09/27 11:59:58;;;;;;;16.73;14.93;;;;;;;;;;5028626;28;20125;-85
2023/09/27 12:02:24;;;;;;;16.73;14.95;;;;;;;;;;5047120;28;20047;-86
2023/09/27 12:04:51;;;;;;;16.80;14.02;;;;;;;;;;5048351;28;20037;-85
2023/09/27 12:07:17;;;;;;;15.48;13.50;;;;;;;;;;5033847;28;20229;-83
2023/09/27 12:09:43;;;;;;;14.90;13.50;;;;;;;;;;5015064;28;20041;-85
2023/09/27 12:12:09;;;;;;;16.23;12.85;;;;;;;;;;5006330;28;20679;-82
2023/09/27 12:14:35;;;;;;;19.25;13.88;;;;;;;;;;5006944;28;20987;-85
2023/09/27 12:17:02;;;;;;;15.52;13.93;;;;;;;;;;5032709;28;20052;-85
2023/09/27 12:19:28;;;;;;;17.35;13.20;;;;;;;;;;5032810;28;20047;-84
2023/09/27 12:21:55;;;;;;;17.00;14.90;;;;;;;;;;5025077;28;20844;-83
2023/09/27 12:24:21;;;;;;;18.15;15.13;;;;;;;;;;5008407;28;20036;-85
2023/09/27 12:26:48;;;;;;;16.70;14.68;;;;;;;;;;4999377;28;20100;-82
2023/09/27 12:29:14;;;;;;;14.88;12.75;;;;;;;;;;5027986;28;20044;-85
2023/09/27 12:31:41;;;;;;;20.90;14.98;;;;;;;;;;5034556;28;20055;-82
2023/09/27 12:34:07;;;;;;;15.05;12.27;;;;;;;;;;5017773;28;20048;-85
2023/09/27 12:36:33;;;;;;;16.30;13.85;;;;;;;;;;5033629;28;20046;-85
2023/09/27 12:38:59;;;;;;;14.90;13.23;;;;;;;;;;5034098;28;20036;-86
2023/09/27 12:41:26;;;;;;;15.63;12.85;;;;;;;;;;5033258;28;20064;-84
2023/09/27 12:43:52;;;;;;;16.23;13.10;;;;;;;;;;5029733;28;20036;-84
2023/09/27 12:46:21;;;;;;;15.60;10.88;;;;;;;;;;5030261;28;21730;-84
2023/09/27 12:48:47;;;;;;;15.73;11.77;;;;;;;;;;5035429;28;20493;-84
2023/09/27 12:51:13;;;;;;;14.05;11.10;;;;;;;;;;4981832;28;20067;-86
2023/09/27 12:53:39;;;;;;;13.77;11.15;;;;;;;;;;4993667;28;20763;-84
2023/09/27 12:56:05;;;;;;;13.75;11.30;;;20.20;99.90;;;;;;4995959;28;20571;-84
2023/09/27 12:58:32;;;;;;;13.07;10.00;;;;;;;;;;4993454;28;20242;-84
2023/09/27 13:00:58;;;;;;;11.88;10.65;;;;;;;;;;5031074;28;20036;-85
2023/09/27 13:03:24;;;;;;;9.68;8.65;;;;;;;;;;5035424;28;20466;-86
2023/09/27 13:05:55;;;;;;;14.55;10.82;;;22.40;99.90;;;;;;5016073;28;20047;-86
2023/09/27 13:08:24;;;;;;;11.88;10.05;;;22.50;99.90;;;;;;5015489;28;20044;-86
2023/09/27 13:10:50;;;;;;;19.13;12.52;;;;;;;;;;5014392;28;20041;-88
2023/09/27 13:13:19;;;;;;;15.48;10.30;;;;;;;;;;5043601;28;20048;-86
2023/09/27 13:15:48;;;;;;;13.15;10.82;;;;;;;;;;5026326;28;20749;-84
2023/09/27 13:18:15;;;;;;;15.00;12.20;;;;;;;;;;5037338;28;20051;-85
2023/09/27 13:20:46;;;;;;;14.85;10.68;;;;;;;;;;5037763;28;20047;-83
2023/09/27 13:23:15;;;;;;;13.50;11.40;;;;;;;;;;5034789;28;20054;-86
2023/09/27 13:25:53;;;;;;;15.82;11.95;;;22.80;99.90;;;;;;5034746;28;20760;-85
2023/09/27 13:28:22;;;;;;;12.63;10.02;;;;;;;;;;5016374;28;20036;-84
2023/09/27 13:30:48;;;;;;;14.02;9.38;;;;;;;;;;5063301;28;20044;-85
2023/09/27 13:33:15;;;;;;;13.93;10.18;;;23.00;99.90;;;;;;5060794;28;20051;-85
2023/09/27 13:35:42;;;;;;;14.82;9.07;;;;;;;;;;5028150;28;20033;-84
2023/09/27 13:38:12;;;;;;;10.75;7.78;;;23.20;99.90;;;;;;5069156;28;20122;-82
2023/09/27 13:40:39;;;;;;;12.23;8.75;;;;;;;;;;5085920;28;20072;-84